sensor_id;sensor_type;location;lat;lon;timestamp;P1;durP1;ratioP1;P2;durP2;ratioP2
59147;SDS011;44930;52.878;6.168;2022-10-19T00:01:38;9.13;;;2.75;;
59147;SDS011;44930;52.878;6.168;2022-10-19T00:04:03;6.90;;;2.10;;
59147;SDS011;44930;52.878;6.168;2022-10-19T00:06:33;7.05;;;2.95;;
59147;SDS011;44930;52.878;6.168;2022-10-19T00:09:02;4.78;;;2.63;;
59147;SDS011;44930;52.878;6.168;2022-10-19T00:11:33;7.22;;;2.65;;
59147;SDS011;44930;52.878;6.168;2022-10-19T00:14:01;13.10;;;2.53;;
59147;SDS011;44930;52.878;6.168;2022-10-19T00:16:29;14.77;;;4.40;;
59147;SDS011;44930;52.878;6.168;2022-10-19T00:18:57;8.88;;;2.47;;
59147;SDS011;44930;52.878;6.168;2022-10-19T00:21:24;12.43;;;2.67;;
59147;SDS011;44930;52.878;6.168;2022-10-19T00:23:50;7.22;;;2.63;;
59147;SDS011;44930;52.878;6.168;2022-10-19T00:26:16;9.70;;;3.45;;
59147;SDS011;44930;52.878;6.168;2022-10-19T00:28:42;7.25;;;2.10;;
59147;SDS011;44930;52.878;6.168;2022-10-19T00:31:10;5.07;;;2.15;;
59147;SDS011;44930;52.878;6.168;2022-10-19T00:33:37;14.93;;;2.90;;
59147;SDS011;44930;52.878;6.168;2022-10-19T00:36:04;6.30;;;1.63;;
59147;SDS011;44930;52.878;6.168;2022-10-19T00:38:30;14.60;;;2.88;;
59147;SDS011;44930;52.878;6.168;2022-10-19T00:40:55;3.83;;;1.70;;
59147;SDS011;44930;52.878;6.168;2022-10-19T00:43:25;10.38;;;2.35;;
59147;SDS011;44930;52.878;6.168;2022-10-19T00:45:54;8.32;;;2.75;;
59147;SDS011;44930;52.878;6.168;2022-10-19T00:48:29;6.82;;;2.55;;
59147;SDS011;44930;52.878;6.168;2022-10-19T00:50:57;4.97;;;1.98;;
59147;SDS011;44930;52.878;6.168;2022-10-19T00:53:25;4.82;;;1.80;;
59147;SDS011;44930;52.878;6.168;2022-10-19T00:55:53;11.98;;;2.22;;
59147;SDS011;44930;52.878;6.168;2022-10-19T00:58:19;5.10;;;1.80;;
59147;SDS011;44930;52.878;6.168;2022-10-19T01:00:45;6.30;;;1.60;;
59147;SDS011;44930;52.878;6.168;2022-10-19T01:03:10;7.28;;;1.83;;
59147;SDS011;44930;52.878;6.168;2022-10-19T01:05:37;5.72;;;1.50;;
59147;SDS011;44930;52.878;6.168;2022-10-19T01:08:03;6.47;;;1.88;;
59147;SDS011;44930;52.878;6.168;2022-10-19T01:10:45;5.18;;;1.10;;
59147;SDS011;44930;52.878;6.168;2022-10-19T01:16:02;4.63;;;1.10;;
59147;SDS011;44930;52.878;6.168;2022-10-19T01:19:21;3.97;;;1.10;;
59147;SDS011;44930;52.878;6.168;2022-10-19T01:21:37;5.22;;;1.40;;
59147;SDS011;44930;52.878;6.168;2022-10-19T01:32:01;3.30;;;1.40;;
59147;SDS011;44930;52.878;6.168;2022-10-19T01:34:45;3.28;;;1.05;;
59147;SDS011;44930;52.878;6.168;2022-10-19T01:42:41;4.25;;;1.65;;
59147;SDS011;44930;52.878;6.168;2022-10-19T01:45:38;5.18;;;0.85;;
59147;SDS011;44930;52.878;6.168;2022-10-19T01:48:16;1.80;;;1.15;;
59147;SDS011;44930;52.878;6.168;2022-10-19T01:51:02;3.75;;;1.02;;
59147;SDS011;44930;52.878;6.168;2022-10-19T01:53:40;3.38;;;2.10;;
59147;SDS011;44930;52.878;6.168;2022-10-19T01:56:10;2.78;;;1.13;;
59147;SDS011;44930;52.878;6.168;2022-10-19T01:58:36;2.00;;;1.40;;
59147;SDS011;44930;52.878;6.168;2022-10-19T02:01:05;4.25;;;1.20;;
59147;SDS011;44930;52.878;6.168;2022-10-19T02:03:33;1.88;;;1.10;;
59147;SDS011;44930;52.878;6.168;2022-10-19T02:06:01;1.90;;;0.90;;
59147;SDS011;44930;52.878;6.168;2022-10-19T02:08:30;4.13;;;0.70;;
59147;SDS011;44930;52.878;6.168;2022-10-19T02:11:02;1.50;;;0.70;;
59147;SDS011;44930;52.878;6.168;2022-10-19T02:13:28;2.38;;;0.80;;
59147;SDS011;44930;52.878;6.168;2022-10-19T02:15:56;1.77;;;1.00;;
59147;SDS011;44930;52.878;6.168;2022-10-19T02:18:35;4.25;;;1.25;;
59147;SDS011;44930;52.878;6.168;2022-10-19T02:21:04;4.53;;;1.00;;
59147;SDS011;44930;52.878;6.168;2022-10-19T02:23:30;1.88;;;0.98;;
59147;SDS011;44930;52.878;6.168;2022-10-19T02:25:56;4.95;;;1.05;;
59147;SDS011;44930;52.878;6.168;2022-10-19T02:28:23;1.85;;;1.02;;
59147;SDS011;44930;52.878;6.168;2022-10-19T02:30:50;2.70;;;1.02;;
59147;SDS011;44930;52.878;6.168;2022-10-19T02:33:15;3.05;;;1.00;;
59147;SDS011;44930;52.878;6.168;2022-10-19T02:35:41;4.10;;;0.80;;
59147;SDS011;44930;52.878;6.168;2022-10-19T02:38:07;2.67;;;0.80;;
59147;SDS011;44930;52.878;6.168;2022-10-19T02:40:38;1.38;;;0.68;;
59147;SDS011;44930;52.878;6.168;2022-10-19T02:43:11;3.45;;;1.73;;
59147;SDS011;44930;52.878;6.168;2022-10-19T02:45:42;2.53;;;0.70;;
59147;SDS011;44930;52.878;6.168;2022-10-19T02:48:18;4.10;;;1.00;;
59147;SDS011;44930;52.878;6.168;2022-10-19T02:50:47;2.78;;;1.25;;
59147;SDS011;44930;52.878;6.168;2022-10-19T02:53:13;2.65;;;1.05;;
59147;SDS011;44930;52.878;6.168;2022-10-19T02:55:39;5.10;;;1.00;;
59147;SDS011;44930;52.878;6.168;2022-10-19T02:58:06;1.92;;;1.00;;
59147;SDS011;44930;52.878;6.168;2022-10-19T03:00:31;5.05;;;1.00;;
59147;SDS011;44930;52.878;6.168;2022-10-19T03:02:57;5.00;;;1.52;;
59147;SDS011;44930;52.878;6.168;2022-10-19T03:05:22;6.72;;;1.45;;
59147;SDS011;44930;52.878;6.168;2022-10-19T03:07:48;1.85;;;1.00;;
59147;SDS011;44930;52.878;6.168;2022-10-19T03:10:13;2.33;;;1.20;;
59147;SDS011;44930;52.878;6.168;2022-10-19T03:12:39;5.15;;;1.40;;
59147;SDS011;44930;52.878;6.168;2022-10-19T03:15:05;3.80;;;1.45;;
59147;SDS011;44930;52.878;6.168;2022-10-19T03:17:31;5.70;;;1.30;;
59147;SDS011;44930;52.878;6.168;2022-10-19T03:19:56;6.85;;;2.33;;
59147;SDS011;44930;52.878;6.168;2022-10-19T03:22:22;2.45;;;1.48;;
59147;SDS011;44930;52.878;6.168;2022-10-19T03:24:48;3.35;;;1.48;;
59147;SDS011;44930;52.878;6.168;2022-10-19T03:27:13;3.13;;;1.52;;
59147;SDS011;44930;52.878;6.168;2022-10-19T03:29:39;4.30;;;1.67;;
59147;SDS011;44930;52.878;6.168;2022-10-19T03:32:05;3.22;;;1.60;;
59147;SDS011;44930;52.878;6.168;2022-10-19T03:34:30;6.60;;;2.03;;
59147;SDS011;44930;52.878;6.168;2022-10-19T03:36:56;6.82;;;2.30;;
59147;SDS011;44930;52.878;6.168;2022-10-19T03:39:23;3.40;;;1.25;;
59147;SDS011;44930;52.878;6.168;2022-10-19T03:41:49;3.05;;;1.90;;
59147;SDS011;44930;52.878;6.168;2022-10-19T03:44:14;4.97;;;1.55;;
59147;SDS011;44930;52.878;6.168;2022-10-19T03:46:40;3.97;;;1.63;;
59147;SDS011;44930;52.878;6.168;2022-10-19T03:49:06;8.93;;;1.42;;
59147;SDS011;44930;52.878;6.168;2022-10-19T03:51:32;5.70;;;1.63;;
59147;SDS011;44930;52.878;6.168;2022-10-19T03:53:59;5.80;;;1.80;;
59147;SDS011;44930;52.878;6.168;2022-10-19T03:56:27;2.58;;;1.48;;
59147;SDS011;44930;52.878;6.168;2022-10-19T03:58:54;6.65;;;1.80;;
59147;SDS011;44930;52.878;6.168;2022-10-19T04:01:22;3.60;;;1.50;;
59147;SDS011;44930;52.878;6.168;2022-10-19T04:03:52;4.38;;;1.40;;
59147;SDS011;44930;52.878;6.168;2022-10-19T04:06:19;4.53;;;1.67;;
59147;SDS011;44930;52.878;6.168;2022-10-19T04:08:49;6.78;;;1.95;;
59147;SDS011;44930;52.878;6.168;2022-10-19T04:11:14;3.35;;;1.70;;
59147;SDS011;44930;52.878;6.168;2022-10-19T04:13:42;6.45;;;1.63;;
59147;SDS011;44930;52.878;6.168;2022-10-19T04:16:08;4.38;;;1.63;;
59147;SDS011;44930;52.878;6.168;2022-10-19T04:18:37;7.97;;;1.83;;
59147;SDS011;44930;52.878;6.168;2022-10-19T04:21:03;14.32;;;3.25;;
59147;SDS011;44930;52.878;6.168;2022-10-19T04:23:31;7.50;;;2.05;;
59147;SDS011;44930;52.878;6.168;2022-10-19T04:25:59;7.00;;;1.80;;
59147;SDS011;44930;52.878;6.168;2022-10-19T04:28:25;4.78;;;2.00;;
59147;SDS011;44930;52.878;6.168;2022-10-19T04:30:51;5.97;;;2.55;;
59147;SDS011;44930;52.878;6.168;2022-10-19T04:33:16;5.93;;;2.35;;
59147;SDS011;44930;52.878;6.168;2022-10-19T04:35:42;5.70;;;1.75;;
59147;SDS011;44930;52.878;6.168;2022-10-19T04:38:08;7.25;;;2.35;;
59147;SDS011;44930;52.878;6.168;2022-10-19T04:40:34;5.97;;;1.80;;
59147;SDS011;44930;52.878;6.168;2022-10-19T04:43:01;5.25;;;1.60;;
59147;SDS011;44930;52.878;6.168;2022-10-19T04:45:28;6.03;;;2.58;;
59147;SDS011;44930;52.878;6.168;2022-10-19T04:47:54;4.97;;;1.63;;
59147;SDS011;44930;52.878;6.168;2022-10-19T04:50:23;6.30;;;1.92;;
59147;SDS011;44930;52.878;6.168;2022-10-19T04:52:49;5.57;;;1.80;;
59147;SDS011;44930;52.878;6.168;2022-10-19T04:55:14;4.30;;;1.70;;
59147;SDS011;44930;52.878;6.168;2022-10-19T04:57:40;5.57;;;1.80;;
59147;SDS011;44930;52.878;6.168;2022-10-19T05:00:06;5.30;;;1.90;;
59147;SDS011;44930;52.878;6.168;2022-10-19T05:02:33;2.25;;;1.60;;
59147;SDS011;44930;52.878;6.168;2022-10-19T05:04:58;4.38;;;1.63;;
59147;SDS011;44930;52.878;6.168;2022-10-19T05:07:24;5.03;;;1.83;;
59147;SDS011;44930;52.878;6.168;2022-10-19T05:09:49;5.45;;;1.60;;
59147;SDS011;44930;52.878;6.168;2022-10-19T05:12:15;4.65;;;2.53;;
59147;SDS011;44930;52.878;6.168;2022-10-19T05:14:41;7.25;;;2.03;;
59147;SDS011;44930;52.878;6.168;2022-10-19T05:17:06;6.25;;;1.90;;
59147;SDS011;44930;52.878;6.168;2022-10-19T05:19:32;6.20;;;1.90;;
59147;SDS011;44930;52.878;6.168;2022-10-19T05:21:57;2.60;;;1.42;;
59147;SDS011;44930;52.878;6.168;2022-10-19T05:24:23;6.50;;;1.55;;
59147;SDS011;44930;52.878;6.168;2022-10-19T05:26:48;4.10;;;1.92;;
59147;SDS011;44930;52.878;6.168;2022-10-19T05:29:14;3.83;;;1.50;;
59147;SDS011;44930;52.878;6.168;2022-10-19T05:31:40;4.90;;;1.50;;
59147;SDS011;44930;52.878;6.168;2022-10-19T05:34:05;5.80;;;1.60;;
59147;SDS011;44930;52.878;6.168;2022-10-19T05:36:32;7.75;;;1.75;;
59147;SDS011;44930;52.878;6.168;2022-10-19T05:39:12;5.07;;;1.80;;
59147;SDS011;44930;52.878;6.168;2022-10-19T05:41:41;2.30;;;1.42;;
59147;SDS011;44930;52.878;6.168;2022-10-19T05:44:09;9.18;;;2.35;;
59147;SDS011;44930;52.878;6.168;2022-10-19T05:46:43;13.17;;;2.17;;
59147;SDS011;44930;52.878;6.168;2022-10-19T05:49:09;8.13;;;2.53;;
59147;SDS011;44930;52.878;6.168;2022-10-19T05:51:36;2.10;;;1.30;;
59147;SDS011;44930;52.878;6.168;2022-10-19T05:54:02;4.15;;;1.98;;
59147;SDS011;44930;52.878;6.168;2022-10-19T05:56:28;5.55;;;1.75;;
59147;SDS011;44930;52.878;6.168;2022-10-19T05:58:55;4.60;;;1.55;;
59147;SDS011;44930;52.878;6.168;2022-10-19T06:01:21;7.32;;;1.50;;
59147;SDS011;44930;52.878;6.168;2022-10-19T06:03:50;2.55;;;1.08;;
59147;SDS011;44930;52.878;6.168;2022-10-19T06:06:16;9.10;;;1.73;;
59147;SDS011;44930;52.878;6.168;2022-10-19T06:08:42;2.88;;;1.50;;
59147;SDS011;44930;52.878;6.168;2022-10-19T06:11:10;3.60;;;1.40;;
59147;SDS011;44930;52.878;6.168;2022-10-19T06:13:38;5.35;;;2.03;;
59147;SDS011;44930;52.878;6.168;2022-10-19T06:16:04;5.13;;;1.40;;
59147;SDS011;44930;52.878;6.168;2022-10-19T06:18:31;4.35;;;1.40;;
59147;SDS011;44930;52.878;6.168;2022-10-19T06:21:01;11.95;;;2.25;;
59147;SDS011;44930;52.878;6.168;2022-10-19T06:23:35;4.10;;;1.80;;
59147;SDS011;44930;52.878;6.168;2022-10-19T06:26:01;5.22;;;1.77;;
59147;SDS011;44930;52.878;6.168;2022-10-19T06:28:28;9.27;;;2.13;;
59147;SDS011;44930;52.878;6.168;2022-10-19T06:30:56;5.22;;;2.05;;
59147;SDS011;44930;52.878;6.168;2022-10-19T06:33:22;9.13;;;2.10;;
59147;SDS011;44930;52.878;6.168;2022-10-19T06:35:47;7.05;;;1.70;;
59147;SDS011;44930;52.878;6.168;2022-10-19T06:38:12;5.53;;;2.17;;
59147;SDS011;44930;52.878;6.168;2022-10-19T06:40:38;8.77;;;1.90;;
59147;SDS011;44930;52.878;6.168;2022-10-19T06:43:04;7.18;;;1.90;;
59147;SDS011;44930;52.878;6.168;2022-10-19T06:45:29;5.70;;;2.03;;
59147;SDS011;44930;52.878;6.168;2022-10-19T06:47:55;7.47;;;2.20;;
59147;SDS011;44930;52.878;6.168;2022-10-19T06:50:21;8.50;;;2.10;;
59147;SDS011;44930;52.878;6.168;2022-10-19T06:52:47;11.15;;;1.98;;
59147;SDS011;44930;52.878;6.168;2022-10-19T06:55:12;6.15;;;1.67;;
59147;SDS011;44930;52.878;6.168;2022-10-19T06:57:38;8.45;;;2.00;;
59147;SDS011;44930;52.878;6.168;2022-10-19T07:00:04;12.70;;;2.10;;
59147;SDS011;44930;52.878;6.168;2022-10-19T07:02:31;7.15;;;1.70;;
59147;SDS011;44930;52.878;6.168;2022-10-19T07:04:57;6.60;;;1.80;;
59147;SDS011;44930;52.878;6.168;2022-10-19T07:07:23;5.32;;;1.30;;
59147;SDS011;44930;52.878;6.168;2022-10-19T07:09:48;6.97;;;2.05;;
59147;SDS011;44930;52.878;6.168;2022-10-19T07:12:14;13.38;;;1.80;;
59147;SDS011;44930;52.878;6.168;2022-10-19T07:14:39;13.88;;;3.22;;
59147;SDS011;44930;52.878;6.168;2022-10-19T07:17:05;8.23;;;2.78;;
59147;SDS011;44930;52.878;6.168;2022-10-19T07:19:31;10.73;;;1.75;;
59147;SDS011;44930;52.878;6.168;2022-10-19T07:21:58;5.05;;;1.27;;
59147;SDS011;44930;52.878;6.168;2022-10-19T07:24:23;10.23;;;1.92;;
59147;SDS011;44930;52.878;6.168;2022-10-19T07:26:49;8.40;;;1.48;;
59147;SDS011;44930;52.878;6.168;2022-10-19T07:29:15;9.10;;;1.33;;
59147;SDS011;44930;52.878;6.168;2022-10-19T07:31:40;7.82;;;2.35;;
59147;SDS011;44930;52.878;6.168;2022-10-19T07:34:08;11.80;;;1.90;;
59147;SDS011;44930;52.878;6.168;2022-10-19T07:36:36;11.18;;;1.75;;
59147;SDS011;44930;52.878;6.168;2022-10-19T07:39:04;10.63;;;1.35;;
59147;SDS011;44930;52.878;6.168;2022-10-19T07:41:31;11.18;;;1.90;;
59147;SDS011;44930;52.878;6.168;2022-10-19T07:43:58;12.07;;;1.95;;
59147;SDS011;44930;52.878;6.168;2022-10-19T07:46:26;10.23;;;1.83;;
59147;SDS011;44930;52.878;6.168;2022-10-19T07:48:53;19.15;;;2.20;;
59147;SDS011;44930;52.878;6.168;2022-10-19T07:51:19;11.60;;;1.90;;
59147;SDS011;44930;52.878;6.168;2022-10-19T07:53:46;9.95;;;1.40;;
59147;SDS011;44930;52.878;6.168;2022-10-19T07:56:13;7.40;;;1.45;;
59147;SDS011;44930;52.878;6.168;2022-10-19T07:58:39;7.55;;;1.40;;
59147;SDS011;44930;52.878;6.168;2022-10-19T08:01:07;9.68;;;1.55;;
59147;SDS011;44930;52.878;6.168;2022-10-19T08:03:37;7.97;;;1.60;;
59147;SDS011;44930;52.878;6.168;2022-10-19T08:06:04;9.27;;;2.45;;
59147;SDS011;44930;52.878;6.168;2022-10-19T08:08:31;8.48;;;1.33;;
59147;SDS011;44930;52.878;6.168;2022-10-19T08:10:56;11.55;;;1.75;;
59147;SDS011;44930;52.878;6.168;2022-10-19T08:13:22;7.53;;;1.70;;
59147;SDS011;44930;52.878;6.168;2022-10-19T08:15:48;15.57;;;1.58;;
59147;SDS011;44930;52.878;6.168;2022-10-19T08:18:14;8.10;;;2.15;;
59147;SDS011;44930;52.878;6.168;2022-10-19T08:20:41;10.38;;;2.08;;
59147;SDS011;44930;52.878;6.168;2022-10-19T08:23:08;10.45;;;1.67;;
59147;SDS011;44930;52.878;6.168;2022-10-19T08:25:34;12.25;;;1.88;;
59147;SDS011;44930;52.878;6.168;2022-10-19T08:28:01;14.88;;;1.77;;
59147;SDS011;44930;52.878;6.168;2022-10-19T08:30:27;9.15;;;1.17;;
59147;SDS011;44930;52.878;6.168;2022-10-19T08:32:52;15.07;;;2.05;;
59147;SDS011;44930;52.878;6.168;2022-10-19T08:35:18;12.80;;;2.00;;
59147;SDS011;44930;52.878;6.168;2022-10-19T08:37:43;9.50;;;1.52;;
59147;SDS011;44930;52.878;6.168;2022-10-19T08:40:16;13.07;;;1.42;;
59147;SDS011;44930;52.878;6.168;2022-10-19T08:43:27;12.75;;;3.20;;
59147;SDS011;44930;52.878;6.168;2022-10-19T08:45:39;9.65;;;2.60;;
59147;SDS011;44930;52.878;6.168;2022-10-19T08:50:53;11.98;;;1.60;;
59147;SDS011;44930;52.878;6.168;2022-10-19T08:56:27;8.98;;;1.80;;
59147;SDS011;44930;52.878;6.168;2022-10-19T09:09:24;9.57;;;1.70;;
59147;SDS011;44930;52.878;6.168;2022-10-19T09:11:53;12.35;;;1.92;;
59147;SDS011;44930;52.878;6.168;2022-10-19T09:14:27;9.90;;;2.22;;
59147;SDS011;44930;52.878;6.168;2022-10-19T09:16:55;12.02;;;2.75;;
59147;SDS011;44930;52.878;6.168;2022-10-19T09:19:27;8.90;;;1.60;;
59147;SDS011;44930;52.878;6.168;2022-10-19T09:22:06;17.48;;;3.25;;
59147;SDS011;44930;52.878;6.168;2022-10-19T09:27:04;8.60;;;1.52;;
59147;SDS011;44930;52.878;6.168;2022-10-19T09:29:43;12.85;;;1.42;;
59147;SDS011;44930;52.878;6.168;2022-10-19T09:32:23;11.10;;;1.25;;
59147;SDS011;44930;52.878;6.168;2022-10-19T09:35:43;12.20;;;1.90;;
59147;SDS011;44930;52.878;6.168;2022-10-19T09:37:47;4.55;;;1.30;;
59147;SDS011;44930;52.878;6.168;2022-10-19T09:40:22;9.90;;;2.60;;
59147;SDS011;44930;52.878;6.168;2022-10-19T09:42:52;8.68;;;2.35;;
59147;SDS011;44930;52.878;6.168;2022-10-19T09:47:56;10.48;;;1.48;;
59147;SDS011;44930;52.878;6.168;2022-10-19T09:50:24;12.35;;;1.25;;
59147;SDS011;44930;52.878;6.168;2022-10-19T09:52:56;10.35;;;1.85;;
59147;SDS011;44930;52.878;6.168;2022-10-19T09:55:28;8.65;;;2.05;;
59147;SDS011;44930;52.878;6.168;2022-10-19T09:58:04;8.93;;;1.50;;
59147;SDS011;44930;52.878;6.168;2022-10-19T10:00:41;9.75;;;1.60;;
59147;SDS011;44930;52.878;6.168;2022-10-19T10:03:22;8.40;;;2.10;;
59147;SDS011;44930;52.878;6.168;2022-10-19T10:05:49;8.48;;;1.50;;
59147;SDS011;44930;52.878;6.168;2022-10-19T10:08:17;9.23;;;1.60;;
59147;SDS011;44930;52.878;6.168;2022-10-19T10:10:46;7.93;;;1.20;;
59147;SDS011;44930;52.878;6.168;2022-10-19T10:13:18;11.32;;;1.58;;
59147;SDS011;44930;52.878;6.168;2022-10-19T10:15:48;9.18;;;1.75;;
59147;SDS011;44930;52.878;6.168;2022-10-19T10:18:16;10.18;;;2.15;;
59147;SDS011;44930;52.878;6.168;2022-10-19T10:20:54;7.78;;;1.20;;
59147;SDS011;44930;52.878;6.168;2022-10-19T10:23:29;10.02;;;2.33;;
59147;SDS011;44930;52.878;6.168;2022-10-19T10:25:59;8.82;;;1.40;;
59147;SDS011;44930;52.878;6.168;2022-10-19T10:28:27;6.68;;;1.60;;
59147;SDS011;44930;52.878;6.168;2022-10-19T10:31:04;15.48;;;1.45;;
59147;SDS011;44930;52.878;6.168;2022-10-19T10:33:32;11.52;;;1.63;;
59147;SDS011;44930;52.878;6.168;2022-10-19T10:36:01;8.00;;;1.70;;
59147;SDS011;44930;52.878;6.168;2022-10-19T10:38:31;7.28;;;2.40;;
59147;SDS011;44930;52.878;6.168;2022-10-19T10:41:00;9.05;;;2.72;;
59147;SDS011;44930;52.878;6.168;2022-10-19T10:43:32;9.95;;;2.75;;
59147;SDS011;44930;52.878;6.168;2022-10-19T10:46:07;8.90;;;1.38;;
59147;SDS011;44930;52.878;6.168;2022-10-19T10:48:39;8.77;;;1.88;;
59147;SDS011;44930;52.878;6.168;2022-10-19T10:51:18;15.65;;;2.22;;
59147;SDS011;44930;52.878;6.168;2022-10-19T10:53:47;10.98;;;1.67;;
59147;SDS011;44930;52.878;6.168;2022-10-19T10:56:26;9.80;;;1.80;;
59147;SDS011;44930;52.878;6.168;2022-10-19T11:01:28;6.70;;;1.15;;
59147;SDS011;44930;52.878;6.168;2022-10-19T11:04:00;5.10;;;1.60;;
59147;SDS011;44930;52.878;6.168;2022-10-19T11:06:33;6.05;;;1.10;;
59147;SDS011;44930;52.878;6.168;2022-10-19T11:09:10;9.32;;;1.38;;
59147;SDS011;44930;52.878;6.168;2022-10-19T11:11:45;8.73;;;2.05;;
59147;SDS011;44930;52.878;6.168;2022-10-19T11:14:21;9.45;;;1.00;;
59147;SDS011;44930;52.878;6.168;2022-10-19T11:17:31;12.50;;;1.70;;
59147;SDS011;44930;52.878;6.168;2022-10-19T11:19:56;11.82;;;2.28;;
59147;SDS011;44930;52.878;6.168;2022-10-19T11:22:30;8.38;;;1.70;;
59147;SDS011;44930;52.878;6.168;2022-10-19T11:28:18;8.68;;;1.42;;
59147;SDS011;44930;52.878;6.168;2022-10-19T11:31:17;4.10;;;1.15;;
59147;SDS011;44930;52.878;6.168;2022-10-19T11:33:58;12.88;;;1.38;;
59147;SDS011;44930;52.878;6.168;2022-10-19T11:37:04;18.13;;;2.63;;
59147;SDS011;44930;52.878;6.168;2022-10-19T11:39:54;8.00;;;1.20;;
59147;SDS011;44930;52.878;6.168;2022-10-19T11:42:56;6.28;;;2.28;;
59147;SDS011;44930;52.878;6.168;2022-10-19T11:51:15;4.80;;;1.30;;
59147;SDS011;44930;52.878;6.168;2022-10-19T11:56:36;5.03;;;1.45;;
59147;SDS011;44930;52.878;6.168;2022-10-19T12:08:09;6.60;;;1.52;;
59147;SDS011;44930;52.878;6.168;2022-10-19T12:10:47;8.98;;;1.73;;
59147;SDS011;44930;52.878;6.168;2022-10-19T12:16:08;8.82;;;1.17;;
59147;SDS011;44930;52.878;6.168;2022-10-19T12:21:13;9.23;;;1.52;;
59147;SDS011;44930;52.878;6.168;2022-10-19T12:23:42;6.35;;;1.55;;
59147;SDS011;44930;52.878;6.168;2022-10-19T12:26:14;8.75;;;2.05;;
59147;SDS011;44930;52.878;6.168;2022-10-19T12:28:42;8.27;;;1.60;;
59147;SDS011;44930;52.878;6.168;2022-10-19T12:31:25;5.97;;;1.45;;
59147;SDS011;44930;52.878;6.168;2022-10-19T12:33:58;8.48;;;1.48;;
59147;SDS011;44930;52.878;6.168;2022-10-19T12:36:46;7.82;;;1.90;;
59147;SDS011;44930;52.878;6.168;2022-10-19T12:45:08;7.80;;;2.15;;
59147;SDS011;44930;52.878;6.168;2022-10-19T12:56:00;10.23;;;0.90;;
59147;SDS011;44930;52.878;6.168;2022-10-19T12:58:46;4.90;;;1.20;;
59147;SDS011;44930;52.878;6.168;2022-10-19T13:03:45;5.18;;;1.08;;
59147;SDS011;44930;52.878;6.168;2022-10-19T13:06:18;7.97;;;1.20;;
59147;SDS011;44930;52.878;6.168;2022-10-19T13:08:58;8.93;;;1.50;;
59147;SDS011;44930;52.878;6.168;2022-10-19T13:11:26;4.72;;;1.52;;
59147;SDS011;44930;52.878;6.168;2022-10-19T13:13:57;8.00;;;1.70;;
59147;SDS011;44930;52.878;6.168;2022-10-19T13:16:54;5.35;;;1.20;;
59147;SDS011;44930;52.878;6.168;2022-10-19T13:19:20;9.98;;;1.35;;
59147;SDS011;44930;52.878;6.168;2022-10-19T13:35:22;9.18;;;1.30;;
59147;SDS011;44930;52.878;6.168;2022-10-19T13:40:36;7.60;;;1.70;;
59147;SDS011;44930;52.878;6.168;2022-10-19T13:43:03;7.60;;;1.75;;
59147;SDS011;44930;52.878;6.168;2022-10-19T13:45:29;7.43;;;1.40;;
59147;SDS011;44930;52.878;6.168;2022-10-19T13:48:03;4.28;;;1.13;;
59147;SDS011;44930;52.878;6.168;2022-10-19T13:50:48;4.88;;;1.15;;
59147;SDS011;44930;52.878;6.168;2022-10-19T13:53:34;4.22;;;1.00;;
59147;SDS011;44930;52.878;6.168;2022-10-19T13:56:23;5.80;;;1.83;;
59147;SDS011;44930;52.878;6.168;2022-10-19T13:59:12;7.32;;;1.80;;
59147;SDS011;44930;52.878;6.168;2022-10-19T14:01:52;7.55;;;1.52;;
59147;SDS011;44930;52.878;6.168;2022-10-19T14:07:24;6.97;;;1.98;;
59147;SDS011;44930;52.878;6.168;2022-10-19T14:10:38;4.72;;;1.70;;
59147;SDS011;44930;52.878;6.168;2022-10-19T14:12:40;5.85;;;1.70;;
59147;SDS011;44930;52.878;6.168;2022-10-19T14:15:11;7.63;;;1.85;;
59147;SDS011;44930;52.878;6.168;2022-10-19T14:17:46;10.30;;;3.30;;
59147;SDS011;44930;52.878;6.168;2022-10-19T14:22:56;7.20;;;1.75;;
59147;SDS011;44930;52.878;6.168;2022-10-19T14:25:23;8.38;;;2.60;;
59147;SDS011;44930;52.878;6.168;2022-10-19T14:28:00;7.03;;;1.98;;
59147;SDS011;44930;52.878;6.168;2022-10-19T14:30:29;7.82;;;3.20;;
59147;SDS011;44930;52.878;6.168;2022-10-19T14:32:58;5.45;;;2.00;;
59147;SDS011;44930;52.878;6.168;2022-10-19T14:35:26;6.35;;;2.45;;
59147;SDS011;44930;52.878;6.168;2022-10-19T14:37:57;5.93;;;1.98;;
59147;SDS011;44930;52.878;6.168;2022-10-19T14:40:28;8.30;;;1.80;;
59147;SDS011;44930;52.878;6.168;2022-10-19T14:42:58;6.90;;;1.73;;
59147;SDS011;44930;52.878;6.168;2022-10-19T14:50:31;9.27;;;2.67;;
59147;SDS011;44930;52.878;6.168;2022-10-19T14:55:45;7.90;;;2.40;;
59147;SDS011;44930;52.878;6.168;2022-10-19T14:58:12;7.97;;;2.00;;
59147;SDS011;44930;52.878;6.168;2022-10-19T15:00:43;6.00;;;2.60;;
59147;SDS011;44930;52.878;6.168;2022-10-19T15:03:15;6.10;;;2.08;;
59147;SDS011;44930;52.878;6.168;2022-10-19T15:05:46;6.45;;;2.50;;
59147;SDS011;44930;52.878;6.168;2022-10-19T15:08:36;8.57;;;2.40;;
59147;SDS011;44930;52.878;6.168;2022-10-19T15:11:04;6.65;;;2.60;;
59147;SDS011;44930;52.878;6.168;2022-10-19T15:13:32;11.85;;;2.30;;
59147;SDS011;44930;52.878;6.168;2022-10-19T15:16:02;5.70;;;2.67;;
59147;SDS011;44930;52.878;6.168;2022-10-19T15:18:32;8.70;;;3.15;;
59147;SDS011;44930;52.878;6.168;2022-10-19T15:21:12;14.88;;;3.17;;
59147;SDS011;44930;52.878;6.168;2022-10-19T15:23:41;8.85;;;3.15;;
59147;SDS011;44930;52.878;6.168;2022-10-19T15:26:13;11.88;;;3.15;;
59147;SDS011;44930;52.878;6.168;2022-10-19T15:28:51;7.57;;;3.30;;
59147;SDS011;44930;52.878;6.168;2022-10-19T15:31:25;12.35;;;3.55;;
59147;SDS011;44930;52.878;6.168;2022-10-19T15:36:18;8.02;;;2.72;;
59147;SDS011;44930;52.878;6.168;2022-10-19T15:38:49;4.80;;;2.42;;
59147;SDS011;44930;52.878;6.168;2022-10-19T15:41:35;10.80;;;2.92;;
59147;SDS011;44930;52.878;6.168;2022-10-19T15:44:02;6.60;;;3.00;;
59147;SDS011;44930;52.878;6.168;2022-10-19T15:46:31;7.30;;;2.95;;
59147;SDS011;44930;52.878;6.168;2022-10-19T15:48:58;5.55;;;2.97;;
59147;SDS011;44930;52.878;6.168;2022-10-19T15:53:50;9.10;;;3.30;;
59147;SDS011;44930;52.878;6.168;2022-10-19T15:56:24;9.18;;;2.80;;
59147;SDS011;44930;52.878;6.168;2022-10-19T15:58:52;6.97;;;3.13;;
59147;SDS011;44930;52.878;6.168;2022-10-19T16:01:20;7.15;;;3.53;;
59147;SDS011;44930;52.878;6.168;2022-10-19T16:03:47;12.88;;;4.35;;
59147;SDS011;44930;52.878;6.168;2022-10-19T16:06:12;6.47;;;3.55;;
59147;SDS011;44930;52.878;6.168;2022-10-19T16:08:40;8.20;;;3.40;;
59147;SDS011;44930;52.878;6.168;2022-10-19T16:11:13;10.45;;;4.03;;
59147;SDS011;44930;52.878;6.168;2022-10-19T16:13:40;7.72;;;3.58;;
59147;SDS011;44930;52.878;6.168;2022-10-19T16:16:06;7.57;;;3.15;;
59147;SDS011;44930;52.878;6.168;2022-10-19T16:18:35;6.68;;;4.03;;
59147;SDS011;44930;52.878;6.168;2022-10-19T16:21:01;5.47;;;3.40;;
59147;SDS011;44930;52.878;6.168;2022-10-19T16:23:27;12.95;;;4.88;;
59147;SDS011;44930;52.878;6.168;2022-10-19T16:25:54;6.45;;;3.40;;
59147;SDS011;44930;52.878;6.168;2022-10-19T16:28:20;8.55;;;4.35;;
59147;SDS011;44930;52.878;6.168;2022-10-19T16:30:50;8.00;;;4.20;;
59147;SDS011;44930;52.878;6.168;2022-10-19T16:33:16;7.18;;;4.63;;
59147;SDS011;44930;52.878;6.168;2022-10-19T16:35:42;7.45;;;4.13;;
59147;SDS011;44930;52.878;6.168;2022-10-19T16:38:07;6.65;;;4.25;;
59147;SDS011;44930;52.878;6.168;2022-10-19T16:40:33;11.02;;;4.55;;
59147;SDS011;44930;52.878;6.168;2022-10-19T16:42:58;6.07;;;4.68;;
59147;SDS011;44930;52.878;6.168;2022-10-19T16:45:25;6.30;;;4.28;;
59147;SDS011;44930;52.878;6.168;2022-10-19T16:47:51;7.85;;;5.07;;
59147;SDS011;44930;52.878;6.168;2022-10-19T16:50:17;7.95;;;4.38;;
59147;SDS011;44930;52.878;6.168;2022-10-19T16:52:42;10.07;;;3.95;;
59147;SDS011;44930;52.878;6.168;2022-10-19T16:55:08;7.68;;;3.38;;
59147;SDS011;44930;52.878;6.168;2022-10-19T16:57:33;7.15;;;3.35;;
59147;SDS011;44930;52.878;6.168;2022-10-19T16:59:59;7.07;;;3.28;;